Time;durP1;ratioP1;P1;durP2;ratioP2;P2;SDS_P1;SDS_P2;PMS_P1;PMS_P2;Temp;Humidity;BMP_temperature;BMP_pressure;BME280_temperature;BME280_humidity;BME280_pressure;Samples;Min_cycle;Max_cycle;Signal;HPM_P1;HPM_P2
2021/11/20 00:01:09;;;;;;;5.30;2.07;;;17.70;66.90;;;;;;10456289;28;20697;-65
2021/11/20 00:06:35;;;;;;;6.57;2.67;;;17.80;67.00;;;;;;10456937;28;20217;-64
2021/11/20 00:12:02;;;;;;;6.67;2.20;;;17.80;66.90;;;;;;10457512;28;20204;-64
2021/11/20 00:17:24;;;;;;;6.37;2.53;;;17.80;66.90;;;;;;10455793;28;20209;-65
2021/11/20 00:22:49;;;;;;;7.90;2.40;;;17.80;67.00;;;;;;10454867;28;20201;-65
2021/11/20 00:28:17;;;;;;;6.57;2.70;;;17.70;67.10;;;;;;10454426;28;20699;-65
2021/11/20 00:33:39;;;;;;;6.03;2.30;;;17.70;67.20;;;;;;10442279;28;20725;-64
2021/11/20 00:39:05;;;;;;;6.43;2.43;;;17.70;67.20;;;;;;10415215;28;20218;-65
2021/11/20 00:44:28;;;;;;;6.23;2.10;;;17.70;67.20;;;;;;10414793;28;20217;-65
2021/11/20 00:49:50;;;;;;;3.97;1.93;;;17.80;67.10;;;;;;10413402;28;20204;-64
2021/11/20 00:55:19;;;;;;;6.53;2.30;;;17.70;67.00;;;;;;10437545;28;20303;-64
2021/11/20 01:00:44;;;;;;;6.80;2.30;;;17.70;67.10;;;;;;10454976;28;20193;-64
2021/11/20 01:06:06;;;;;;;6.17;2.10;;;17.70;67.20;;;;;;10423074;28;20316;-65
2021/11/20 01:11:33;;;;;;;5.60;2.30;;;17.70;67.20;;;;;;10420022;28;20197;-65
2021/11/20 01:16:57;;;;;;;4.73;1.90;;;17.70;67.30;;;;;;10454682;28;20212;-65
2021/11/20 01:22:22;;;;;;;5.20;2.13;;;17.70;67.40;;;;;;10431601;28;20198;-66
2021/11/20 01:27:46;;;;;;;3.10;1.70;;;17.70;67.20;;;;;;10412436;28;20591;-65
2021/11/20 01:33:08;;;;;;;8.03;2.87;;;17.70;67.10;;;;;;10413702;28;20705;-65
2021/11/20 01:38:30;;;;;;;4.40;2.03;;;17.70;67.10;;;;;;10410962;28;20213;-65
2021/11/20 01:43:57;;;;;;;6.37;2.23;;;17.70;67.10;;;;;;10427970;28;20204;-65
2021/11/20 01:49:23;;;;;;;5.30;2.20;;;17.70;67.20;;;;;;10451982;28;20220;-63
2021/11/20 01:54:52;;;;;;;7.57;2.60;;;17.60;67.20;;;;;;10451037;28;20213;-65
2021/11/20 02:00:23;;;;;;;9.10;2.90;;;17.70;67.30;;;;;;10451599;28;20197;-64
2021/11/20 02:06:04;;;;;;;6.83;2.97;;;17.70;67.20;;;;;;10451771;28;20220;-65
2021/11/20 02:11:32;;;;;;;6.13;2.27;;;17.70;67.10;;;;;;10449529;28;20193;-63
2021/11/20 02:17:00;;;;;;;8.17;3.17;;;17.70;67.20;;;;;;10427875;28;20220;-64
2021/11/20 02:22:31;;;;;;;6.43;2.80;;;17.70;67.20;;;;;;10410148;28;20320;-65
2021/11/20 02:27:57;;;;;;;6.37;2.90;;;17.60;67.20;;;;;;10413336;28;20221;-65
2021/11/20 02:33:25;;;;;;;5.20;2.70;;;17.60;67.20;;;;;;10450918;28;20262;-65
2021/11/20 02:38:56;;;;;;;5.17;2.57;;;17.70;67.30;;;;;;10450005;28;20235;-65
2021/11/20 02:44:21;;;;;;;6.40;2.70;;;17.70;67.10;;;;;;10449394;28;20190;-63
2021/11/20 02:49:44;;;;;;;8.40;3.00;;;17.70;67.00;;;;;;10450692;28;20556;-64
2021/11/20 02:55:08;;;;;;;14.00;4.17;;;17.70;67.00;;;;;;10450656;28;20212;-65
2021/11/20 03:00:30;;;;;;;10.17;3.10;;;17.70;67.00;;;;;;10449672;28;20204;-65
2021/11/20 03:05:54;;;;;;;8.40;3.10;;;17.60;67.10;;;;;;10449739;28;20228;-65
2021/11/20 03:11:17;;;;;;;7.93;2.83;;;17.60;67.10;;;;;;10450763;28;20685;-64
2021/11/20 03:16:43;;;;;;;6.80;2.97;;;17.60;67.10;;;;;;10458123;28;20204;-65
2021/11/20 03:22:09;;;;;;;8.07;3.20;;;17.70;67.00;;;;;;10459772;28;20204;-63
2021/11/20 03:27:31;;;;;;;8.00;3.47;;;17.70;66.90;;;;;;10457750;28;20216;-65
2021/11/20 03:32:54;;;;;;;6.87;2.90;;;17.70;66.90;;;;;;10458945;28;20193;-63
2021/11/20 03:38:18;;;;;;;7.13;3.07;;;17.60;66.90;;;;;;10456714;28;20216;-64
2021/11/20 03:43:40;;;;;;;5.90;3.30;;;17.60;67.00;;;;;;10457903;28;20200;-64
2021/11/20 03:49:03;;;;;;;10.40;3.63;;;17.60;67.00;;;;;;10456702;28;20225;-65
2021/11/20 03:54:27;;;;;;;7.83;2.97;;;17.60;67.00;;;;;;10455990;28;20242;-63
2021/11/20 03:59:49;;;;;;;6.97;3.10;;;17.70;66.90;;;;;;10452524;28;20202;-65
2021/11/20 04:05:12;;;;;;;4.93;2.43;;;17.70;66.80;;;;;;10430337;28;20221;-65
2021/11/20 04:10:36;;;;;;;4.60;2.20;;;17.70;66.70;;;;;;10475189;28;20197;-64
2021/11/20 04:15:58;;;;;;;7.27;3.00;;;17.70;66.70;;;;;;10498064;28;20208;-65
2021/11/20 04:21:21;;;;;;;6.73;2.53;;;17.60;66.80;;;;;;10497834;28;20200;-65
2021/11/20 04:26:45;;;;;;;4.77;2.37;;;17.60;66.80;;;;;;10469099;28;20694;-64
2021/11/20 04:32:09;;;;;;;5.37;2.80;;;17.60;66.80;;;;;;10456968;28;20670;-65
2021/11/20 04:37:32;;;;;;;7.07;2.93;;;17.60;66.60;;;;;;10454822;28;20304;-65
2021/11/20 04:42:55;;;;;;;4.67;2.13;;;17.60;66.50;;;;;;10454268;28;20220;-64
2021/11/20 04:48:18;;;;;;;6.40;2.67;;;17.60;66.50;;;;;;10477562;22;20232;-67
2021/11/20 04:53:42;;;;;;;7.57;2.90;;;17.60;66.60;;;;;;10451001;28;20216;-66
2021/11/20 04:59:06;;;;;;;7.83;2.83;;;17.60;66.70;;;;;;10443390;28;20217;-66
2021/11/20 05:04:28;;;;;;;7.03;3.10;;;17.60;66.70;;;;;;10394481;28;20235;-66
2021/11/20 05:09:53;;;;;;;5.07;2.70;;;17.50;66.70;;;;;;10387330;28;20226;-67
2021/11/20 05:15:17;;;;;;;8.07;2.87;;;17.50;66.80;;;;;;10409696;28;20197;-66
2021/11/20 05:20:39;;;;;;;5.90;2.80;;;17.50;66.80;;;;;;10407022;28;20209;-67
2021/11/20 05:26:02;;;;;;;4.97;2.77;;;17.50;66.80;;;;;;10405606;28;20232;-66
2021/11/20 05:31:25;;;;;;;5.07;2.90;;;17.50;66.80;;;;;;10406056;28;20225;-66
2021/11/20 05:36:47;;;;;;;6.60;3.47;;;17.50;66.80;;;;;;10408468;28;20248;-66
2021/11/20 05:42:10;;;;;;;4.90;2.60;;;17.50;66.80;;;;;;10401444;28;20648;-66
2021/11/20 05:47:33;;;;;;;5.40;3.03;;;17.60;66.70;;;;;;10392466;28;20214;-66
2021/11/20 05:52:57;;;;;;;6.33;3.50;;;17.70;66.30;;;;;;10387787;28;20214;-66
2021/11/20 05:58:20;;;;;;;6.50;3.17;;;17.80;65.90;;;;;;10391830;28;20193;-66
2021/11/20 06:03:44;;;;;;;5.17;3.53;;;17.80;65.70;;;;;;10391765;28;20194;-66
2021/11/20 06:09:07;;;;;;;5.23;3.50;;;17.80;65.60;;;;;;10392411;28;20222;-65
2021/11/20 06:14:29;;;;;;;6.37;4.13;;;17.90;65.70;;;;;;10391082;28;20194;-66
2021/11/20 06:19:52;;;;;;;6.30;4.03;;;17.90;65.60;;;;;;10392286;28;20700;-66
2021/11/20 06:25:15;;;;;;;7.63;4.60;;;17.90;65.50;;;;;;10384662;28;20206;-66
2021/11/20 06:30:38;;;;;;;10.00;4.90;;;17.90;65.50;;;;;;10390503;28;20215;-66
2021/11/20 06:36:01;;;;;;;7.13;4.27;;;17.90;65.50;;;;;;10393200;28;20573;-66
2021/11/20 06:41:24;;;;;;;8.83;5.17;;;17.90;65.60;;;;;;10409369;28;20588;-66
2021/11/20 06:46:46;;;;;;;8.50;4.63;;;17.80;65.70;;;;;;10392422;28;20214;-66
2021/11/20 06:52:10;;;;;;;5.27;4.03;;;17.80;65.80;;;;;;10374199;28;20236;-67
2021/11/20 06:57:50;;;;;;;7.17;3.83;;;17.70;65.90;;;;;;10401688;28;20189;-66
2021/11/20 07:03:16;;;;;;;7.40;4.43;;;17.70;66.10;;;;;;10384518;28;20559;-66
2021/11/20 07:08:40;;;;;;;7.27;4.10;;;17.70;66.20;;;;;;10369192;28;20739;-67
2021/11/20 07:14:02;;;;;;;5.77;3.90;;;17.70;66.20;;;;;;10392104;28;20202;-66
2021/11/20 07:19:25;;;;;;;5.07;3.70;;;17.70;66.30;;;;;;10378456;28;20222;-66
2021/11/20 07:24:48;;;;;;;4.63;4.00;;;17.70;66.30;;;;;;10368847;28;20194;-66
2021/11/20 07:30:12;;;;;;;5.50;4.60;;;17.70;66.10;;;;;;10374194;28;20297;-66
2021/11/20 07:35:38;;;;;;;6.70;4.20;;;17.80;66.10;;;;;;10382552;28;20198;-66
2021/11/20 07:41:02;;;;;;;6.30;4.43;;;17.80;66.00;;;;;;10370257;28;20762;-66
2021/11/20 07:46:24;;;;;;;6.17;4.63;;;17.80;65.80;;;;;;10385433;28;20558;-66
2021/11/20 07:51:46;;;;;;;5.00;3.80;;;17.80;65.70;;;;;;10399185;28;20221;-65
2021/11/20 07:57:10;;;;;;;4.40;4.00;;;17.80;65.60;;;;;;10390281;28;20190;-65
2021/11/20 08:02:32;;;;;;;10.50;4.20;;;17.80;65.50;;;;;;10393026;28;20613;-66
2021/11/20 08:07:54;;;;;;;5.93;4.00;;;17.80;65.40;;;;;;10388165;28;20645;-67
2021/11/20 08:13:19;;;;;;;4.37;3.40;;;17.80;65.50;;;;;;10394648;28;20680;-66
2021/11/20 08:18:41;;;;;;;3.63;2.83;;;17.80;65.50;;;;;;10375472;28;20588;-66
2021/11/20 08:24:04;;;;;;;4.53;3.20;;;17.80;65.50;;;;;;10375777;28;20201;-66
2021/11/20 08:29:30;;;;;;;5.17;3.00;;;17.70;65.50;;;;;;10381648;28;20214;-66
2021/11/20 08:34:52;;;;;;;6.37;3.23;;;17.70;65.60;;;;;;10415139;28;20202;-66
2021/11/20 08:40:18;;;;;;;3.63;2.53;;;17.70;65.60;;;;;;10414922;28;20222;-66
2021/11/20 08:45:48;;;;;;;2.93;2.40;;;17.70;65.70;;;;;;10405221;28;20234;-66
2021/11/20 08:51:15;;;;;;;3.93;2.80;;;17.70;65.80;;;;;;10373790;28;20590;-66
2021/11/20 08:56:41;;;;;;;4.70;2.30;;;17.70;65.70;;;;;;10384786;28;20206;-65
2021/11/20 09:02:09;;;;;;;3.13;2.60;;;17.70;65.60;;;;;;10414121;28;20601;-65
2021/11/20 09:07:47;;;;;;;3.97;2.37;;;17.70;66.20;;;;;;10414001;28;20221;-65
2021/11/20 09:13:23;;;;;;;3.00;2.30;;;17.70;65.40;;;;;;10385863;28;20203;-65
2021/11/20 09:18:47;;;;;;;2.67;2.43;;;17.70;65.30;;;;;;10371390;28;20218;-65
2021/11/20 09:24:10;;;;;;;2.70;2.47;;;17.70;65.30;;;;;;10372829;28;20201;-65
2021/11/20 09:29:32;;;;;;;4.97;2.70;;;17.80;65.30;;;;;;10371589;28;20230;-66
2021/11/20 09:34:56;;;;;;;4.30;3.00;;;17.80;65.30;;;;;;10371525;28;20209;-66
2021/11/20 09:40:19;;;;;;;3.13;2.50;;;17.80;65.20;;;;;;10371135;28;20233;-66
2021/11/20 09:45:45;;;;;;;3.90;2.73;;;17.70;65.30;;;;;;10379762;28;20689;-66
2021/11/20 09:51:15;;;;;;;4.47;2.50;;;17.70;65.30;;;;;;10401933;28;20217;-66
2021/11/20 09:56:40;;;;;;;5.43;3.33;;;17.70;65.40;;;;;;10411565;28;20573;-66
2021/11/20 10:02:10;;;;;;;5.00;2.70;;;17.70;65.60;;;;;;10408153;28;20225;-65
2021/11/20 10:07:35;;;;;;;4.27;3.07;;;17.70;65.50;;;;;;10411659;28;20213;-66
2021/11/20 10:13:11;;;;;;;4.07;2.33;;;17.70;65.70;;;;;;10411297;28;20217;-65
2021/11/20 10:18:40;;;;;;;2.73;2.53;;;17.60;65.50;;;;;;10410244;28;20619;-65
2021/11/20 10:24:11;;;;;;;3.20;2.40;;;17.70;65.50;;;;;;10410186;28;20194;-66
2021/11/20 10:29:53;;;;;;;3.80;3.10;;;17.70;65.30;;;;;;10401836;28;20606;-66
2021/11/20 10:35:20;;;;;;;3.37;2.93;;;17.80;65.30;;;;;;10410735;28;20276;-66
2021/11/20 10:40:52;;;;;;;3.80;3.40;;;17.80;65.40;;;;;;10410281;28;20210;-66
2021/11/20 10:46:30;;;;;;;5.27;4.40;;;17.80;65.10;;;;;;10395425;28;20191;-66
2021/11/20 10:51:59;;;;;;;4.57;4.10;;;17.80;64.90;;;;;;10465162;22;20224;-66
2021/11/20 10:57:45;;;;;;;4.77;4.13;;;17.80;65.00;;;;;;10420802;28;20201;-66
2021/11/20 11:03:28;;;;;;;4.67;4.27;;;17.90;65.00;;;;;;10434625;28;20697;-66
2021/11/20 11:08:56;;;;;;;4.50;4.03;;;17.80;64.90;;;;;;10410583;28;20688;-66
2021/11/20 11:14:47;;;;;;;6.97;4.80;;;17.80;65.10;;;;;;10410872;28;20664;-66
2021/11/20 11:20:15;;;;;;;5.20;4.60;;;17.80;64.90;;;;;;10409661;28;20228;-66
2021/11/20 11:25:44;;;;;;;4.97;4.50;;;17.70;65.10;;;;;;10410239;28;20593;-66
2021/11/20 11:31:23;;;;;;;4.20;3.80;;;17.70;65.30;;;;;;10409706;28;20383;-66
2021/11/20 11:36:50;;;;;;;5.23;4.23;;;17.70;65.30;;;;;;10416404;28;20190;-66
2021/11/20 11:42:44;;;;;;;5.87;4.90;;;17.60;65.40;;;;;;10418616;28;20581;-66
2021/11/20 11:48:25;;;;;;;6.23;5.57;;;17.60;65.30;;;;;;10444863;28;20223;-66
2021/11/20 11:54:02;;;;;;;6.27;5.67;;;17.70;65.70;;;;;;10452800;28;20201;-66
2021/11/20 11:59:38;;;;;;;6.17;5.57;;;17.70;65.00;;;;;;10458347;28;20557;-66
2021/11/20 12:05:24;;;;;;;6.10;5.40;;;17.70;65.10;;;;;;10458480;28;20219;-66
2021/11/20 12:11:00;;;;;;;4.87;4.37;;;17.70;64.70;;;;;;10454790;28;20587;-66
2021/11/20 12:16:51;;;;;;;6.13;4.73;;;17.70;64.50;;;;;;10458192;28;20198;-66
2021/11/20 12:22:30;;;;;;;5.13;4.60;;;17.80;64.40;;;;;;10447384;28;20224;-66
2021/11/20 12:27:56;;;;;;;7.07;5.13;;;17.80;64.30;;;;;;10456954;28;20209;-66
2021/11/20 12:33:53;;;;;;;8.10;6.03;;;17.80;64.10;;;;;;10456690;28;20213;-66
2021/11/20 12:39:37;;;;;;;9.20;5.77;;;17.80;63.80;;;;;;10447224;28;20241;-66
2021/11/20 12:45:34;;;;;;;8.50;5.90;;;17.70;63.90;;;;;;10448137;28;20189;-66
2021/11/20 12:51:00;;;;;;;8.90;5.67;;;17.70;63.90;;;;;;10425641;28;20229;-66
2021/11/20 12:56:29;;;;;;;6.20;4.70;;;17.70;64.20;;;;;;10414365;28;20204;-66
2021/11/20 13:01:54;;;;;;;7.77;5.20;;;17.60;64.30;;;;;;10431001;28;20202;-67
2021/11/20 13:07:18;;;;;;;5.50;5.00;;;17.70;64.40;;;;;;10413850;28;20201;-66
2021/11/20 13:12:47;;;;;;;6.13;5.07;;;17.60;64.40;;;;;;10414144;28;20665;-66
2021/11/20 13:18:19;;;;;;;6.87;5.30;;;17.60;64.50;;;;;;10413898;28;20193;-66
2021/11/20 13:23:42;;;;;;;6.13;5.53;;;17.60;64.10;;;;;;10413466;28;20194;-66
2021/11/20 13:29:06;;;;;;;6.63;5.83;;;17.60;63.90;;;;;;10425798;28;20235;-66
2021/11/20 13:34:29;;;;;;;6.47;5.77;;;17.60;63.80;;;;;;10413347;28;20557;-66
2021/11/20 13:39:51;;;;;;;5.80;5.20;;;17.60;63.80;;;;;;10414760;28;20225;-66
2021/11/20 13:45:15;;;;;;;5.60;5.00;;;17.70;63.60;;;;;;10419446;28;20201;-66
2021/11/20 13:50:40;;;;;;;6.57;5.67;;;17.70;63.50;;;;;;10423635;28;20248;-66
2021/11/20 13:56:07;;;;;;;6.43;5.67;;;17.70;63.40;;;;;;10411922;28;20724;-66
2021/11/20 14:01:32;;;;;;;6.63;5.37;;;17.70;63.40;;;;;;10412360;28;20221;-66
2021/11/20 14:07:00;;;;;;;6.27;5.43;;;17.70;63.20;;;;;;10412687;28;20206;-66
2021/11/20 14:12:34;;;;;;;7.13;5.77;;;17.60;63.30;;;;;;10412664;28;20218;-66
2021/11/20 14:18:03;;;;;;;8.47;6.27;;;17.60;63.30;;;;;;10414321;28;20186;-67
2021/11/20 14:23:25;;;;;;;7.67;5.53;;;17.60;63.10;;;;;;10410803;28;20221;-66
2021/11/20 14:28:48;;;;;;;7.07;5.90;;;17.60;63.10;;;;;;10429835;28;20723;-66
2021/11/20 14:34:15;;;;;;;7.57;6.07;;;17.70;63.20;;;;;;10412530;28;20201;-66
2021/11/20 14:39:37;;;;;;;7.37;5.87;;;17.70;63.00;;;;;;10410492;28;20276;-66
2021/11/20 14:45:04;;;;;;;7.87;6.67;;;17.70;62.80;;;;;;10414601;28;20568;-66
2021/11/20 14:50:30;;;;;;;6.47;5.53;;;17.70;62.80;;;;;;10448387;28;20255;-67
2021/11/20 14:55:55;;;;;;;6.93;5.40;;;17.60;63.00;;;;;;10453000;28;20193;-67
2021/11/20 15:01:18;;;;;;;8.00;6.23;;;17.70;63.10;;;;;;10451594;28;20292;-66
2021/11/20 15:06:42;;;;;;;5.47;4.23;;;17.80;62.80;;;;;;10429643;28;20208;-66
2021/11/20 15:12:05;;;;;;;8.93;6.50;;;17.80;63.00;;;;;;10426712;28;20372;-66
2021/11/20 15:17:27;;;;;;;8.67;7.40;;;17.90;63.30;;;;;;10443718;28;20808;-67
2021/11/20 15:22:52;;;;;;;9.17;7.73;;;17.80;62.40;;;;;;10446754;28;20232;-66
2021/11/20 15:28:14;;;;;;;10.17;7.40;;;17.90;62.30;;;;;;10449849;28;20292;-66
2021/11/20 15:33:36;;;;;;;10.33;7.60;;;17.90;62.10;;;;;;10447252;28;20217;-66
2021/11/20 15:38:59;;;;;;;11.67;9.20;;;17.90;61.80;;;;;;10450198;28;20193;-67
2021/11/20 15:44:23;;;;;;;10.57;8.80;;;17.90;61.80;;;;;;10450674;28;20203;-66
2021/11/20 15:49:46;;;;;;;11.07;8.93;;;17.90;61.90;;;;;;10438984;28;20304;-66
2021/11/20 15:55:10;;;;;;;11.90;9.57;;;17.90;62.00;;;;;;10409551;28;20668;-66
2021/11/20 16:00:32;;;;;;;11.07;8.40;;;17.90;62.10;;;;;;10408487;28;20214;-66
2021/11/20 16:05:54;;;;;;;10.57;8.63;;;17.80;62.30;;;;;;10421997;28;20578;-66
2021/11/20 16:11:17;;;;;;;12.93;9.37;;;17.70;62.50;;;;;;10446827;28;20703;-66
2021/11/20 16:16:39;;;;;;;11.43;8.77;;;17.70;62.70;;;;;;10412031;28;20665;-66
2021/11/20 16:22:02;;;;;;;10.60;8.83;;;17.70;62.90;;;;;;10414179;28;20225;-67
2021/11/20 16:27:25;;;;;;;13.07;9.90;;;17.70;63.00;;;;;;10416009;28;20205;-67
2021/11/20 16:32:47;;;;;;;13.33;10.20;;;17.70;63.10;;;;;;10426449;28;20216;-66
2021/11/20 16:38:09;;;;;;;13.63;11.13;;;17.60;63.00;;;;;;10418357;28;20197;-66
2021/11/20 16:43:33;;;;;;;15.17;11.37;;;17.70;62.90;;;;;;10415700;28;20600;-66
2021/11/20 16:48:56;;;;;;;15.87;12.97;;;17.70;63.00;;;;;;10436096;28;20224;-66
2021/11/20 16:54:21;;;;;;;17.73;13.70;;;17.70;62.90;;;;;;10490166;22;20759;-65
2021/11/20 16:59:45;;;;;;;17.30;12.63;;;17.70;63.20;;;;;;10450605;28;20811;-65
2021/11/20 17:05:07;;;;;;;17.57;13.77;;;17.70;63.50;;;;;;10453718;28;20209;-66
2021/11/20 17:10:30;;;;;;;15.57;11.53;;;17.70;63.60;;;;;;10455198;28;20221;-65
2021/11/20 17:15:53;;;;;;;16.07;12.30;;;17.70;63.70;;;;;;10450764;28;20197;-64
2021/11/20 17:21:16;;;;;;;17.83;13.53;;;17.60;63.90;;;;;;10450598;28;20221;-66
2021/11/20 17:26:38;;;;;;;15.33;12.47;;;17.60;64.20;;;;;;10445337;28;20330;-66
2021/11/20 17:32:02;;;;;;;14.33;11.83;;;17.60;64.40;;;;;;10450543;28;20225;-66
2021/11/20 17:37:24;;;;;;;18.47;14.00;;;17.70;64.50;;;;;;10448216;28;20627;-66
2021/11/20 17:42:47;;;;;;;15.37;12.07;;;17.70;64.40;;;;;;10442662;28;20217;-66
2021/11/20 17:48:10;;;;;;;14.90;11.83;;;17.70;64.50;;;;;;10449538;28;20695;-66
2021/11/20 17:53:33;;;;;;;14.10;10.57;;;17.80;64.50;;;;;;10442308;28;20225;-66
2021/11/20 17:58:55;;;;;;;13.83;11.13;;;17.80;64.50;;;;;;10447202;28;20193;-66
2021/11/20 18:04:19;;;;;;;14.77;11.73;;;17.80;65.10;;;;;;10450101;28;20693;-65
2021/11/20 18:09:41;;;;;;;13.20;11.30;;;17.80;64.50;;;;;;10450379;28;20225;-66
2021/11/20 18:15:04;;;;;;;15.13;10.13;;;17.90;64.60;;;;;;10446699;28;20211;-65
2021/11/20 18:20:27;;;;;;;11.90;9.90;;;17.90;64.70;;;;;;10449552;28;20220;-66
2021/11/20 18:25:49;;;;;;;10.93;9.70;;;17.90;64.80;;;;;;10448051;28;20207;-66
2021/11/20 18:31:11;;;;;;;13.63;12.23;;;17.90;64.90;;;;;;10444401;28;20432;-65
2021/11/20 18:36:35;;;;;;;12.80;10.47;;;18.60;62.30;;;;;;10448950;28;20208;-65
2021/11/20 18:41:57;;;;;;;12.60;10.17;;;18.20;63.70;;;;;;10449233;28;20552;-65
2021/11/20 18:47:19;;;;;;;14.50;11.20;;;18.10;64.40;;;;;;10468451;28;20583;-65
2021/11/20 18:52:43;;;;;;;11.50;9.47;;;17.90;64.50;;;;;;10452380;28;20217;-65
2021/11/20 18:58:07;;;;;;;12.10;9.47;;;17.90;64.70;;;;;;10452014;28;20343;-65
2021/11/20 19:03:29;;;;;;;12.30;10.33;;;17.80;65.00;;;;;;10452826;28;20695;-65
2021/11/20 19:08:53;;;;;;;13.00;10.87;;;17.80;64.60;;;;;;10451663;28;20212;-65
2021/11/20 19:14:15;;;;;;;12.10;10.80;;;17.80;64.30;;;;;;10451377;28;20221;-65
2021/11/20 19:19:37;;;;;;;11.53;9.60;;;17.90;64.30;;;;;;10451488;28;20193;-65
2021/11/20 19:25:01;;;;;;;12.47;9.83;;;17.90;64.40;;;;;;10468755;28;20197;-65
2021/11/20 19:30:24;;;;;;;10.67;9.00;;;17.80;64.50;;;;;;10480822;28;20213;-65
2021/11/20 19:35:46;;;;;;;11.20;9.33;;;17.80;64.50;;;;;;10437260;28;20205;-65
2021/11/20 19:41:11;;;;;;;9.93;8.90;;;17.80;64.70;;;;;;10439045;28;20220;-65
2021/11/20 19:46:33;;;;;;;10.73;8.93;;;17.70;64.80;;;;;;10440176;28;20216;-65
2021/11/20 19:51:56;;;;;;;10.07;8.37;;;17.70;65.40;;;;;;10437305;28;20216;-65
2021/11/20 19:57:19;;;;;;;9.60;8.57;;;17.70;64.90;;;;;;10443322;28;20197;-65
2021/11/20 20:02:41;;;;;;;9.70;8.47;;;17.70;65.00;;;;;;10459188;28;20228;-65
2021/11/20 20:08:04;;;;;;;9.10;8.03;;;17.70;64.80;;;;;;10472736;28;20194;-65
2021/11/20 20:13:28;;;;;;;8.37;6.97;;;17.80;64.50;;;;;;10470811;28;20219;-65
2021/11/20 20:18:50;;;;;;;8.80;7.90;;;17.80;64.40;;;;;;10468051;28;20198;-65
2021/11/20 20:24:12;;;;;;;9.20;7.77;;;17.80;64.30;;;;;;10471103;28;20711;-65
2021/11/20 20:29:36;;;;;;;7.70;6.77;;;17.80;64.30;;;;;;10471445;28;20224;-65
2021/11/20 20:34:58;;;;;;;9.23;6.97;;;17.80;64.40;;;;;;10469622;28;20200;-65
2021/11/20 20:40:21;;;;;;;6.73;5.97;;;17.80;64.40;;;;;;10476399;28;20205;-65
2021/11/20 20:45:44;;;;;;;6.53;5.90;;;17.80;64.60;;;;;;10476134;28;20216;-64
2021/11/20 20:51:07;;;;;;;7.23;6.17;;;17.70;64.60;;;;;;10467547;28;20232;-64
2021/11/20 20:56:29;;;;;;;7.23;6.50;;;17.70;64.80;;;;;;10454225;28;20204;-64
2021/11/20 21:01:53;;;;;;;5.60;5.10;;;17.70;64.80;;;;;;10464721;28;20213;-64
2021/11/20 21:07:15;;;;;;;6.60;5.90;;;17.70;64.80;;;;;;10461629;28;20193;-64
2021/11/20 21:12:39;;;;;;;7.00;6.30;;;17.70;64.90;;;;;;10461609;28;20702;-64
2021/11/20 21:18:05;;;;;;;7.00;6.03;;;17.70;64.80;;;;;;10462440;28;20200;-64
2021/11/20 21:23:27;;;;;;;5.73;5.13;;;17.70;64.50;;;;;;10461262;28;20378;-64
2021/11/20 21:28:49;;;;;;;8.23;6.10;;;17.70;64.50;;;;;;10454385;28;20228;-65
2021/11/20 21:34:13;;;;;;;6.00;5.40;;;17.70;64.50;;;;;;10454602;28;20777;-65
2021/11/20 21:39:37;;;;;;;6.63;5.50;;;17.80;64.40;;;;;;10455350;28;20664;-64
2021/11/20 21:44:59;;;;;;;6.23;5.27;;;17.70;64.30;;;;;;10455834;28;20220;-64
2021/11/20 21:50:23;;;;;;;5.30;4.80;;;17.70;64.40;;;;;;10452818;28;20730;-64
2021/11/20 21:55:45;;;;;;;5.17;4.67;;;17.70;64.60;;;;;;10454354;28;20568;-64
2021/11/20 22:01:07;;;;;;;5.40;4.77;;;17.70;64.70;;;;;;10416387;28;20603;-64
2021/11/20 22:06:31;;;;;;;4.40;4.00;;;17.60;64.80;;;;;;10454026;28;20655;-64
2021/11/20 22:11:53;;;;;;;5.23;4.73;;;17.60;64.90;;;;;;10453906;28;20595;-64
2021/11/20 22:17:16;;;;;;;4.63;4.20;;;17.60;65.00;;;;;;10452317;28;20208;-64
2021/11/20 22:22:40;;;;;;;5.30;4.80;;;17.60;65.10;;;;;;10453916;28;20221;-64
2021/11/20 22:28:05;;;;;;;5.73;5.13;;;17.50;65.10;;;;;;10453485;28;20670;-64
2021/11/20 22:33:27;;;;;;;4.80;4.40;;;17.60;65.10;;;;;;10452051;28;20233;-64
2021/11/20 22:38:51;;;;;;;5.67;5.10;;;17.50;65.00;;;;;;10452248;28;20233;-65
2021/11/20 22:44:13;;;;;;;6.50;5.07;;;17.50;65.00;;;;;;10453123;28;20217;-64
2021/11/20 22:49:35;;;;;;;5.73;4.90;;;17.50;65.10;;;;;;10452003;28;20634;-64
2021/11/20 22:54:58;;;;;;;5.53;4.30;;;17.60;65.00;;;;;;10466127;22;20682;-64
2021/11/20 23:00:26;;;;;;;4.83;4.33;;;17.60;65.00;;;;;;10409432;28;20189;-64
2021/11/20 23:05:49;;;;;;;3.57;3.27;;;17.60;65.00;;;;;;10403088;28;20209;-64
2021/11/20 23:11:13;;;;;;;4.00;3.47;;;17.60;65.00;;;;;;10409049;28;20221;-64
2021/11/20 23:16:35;;;;;;;3.80;3.20;;;17.60;64.80;;;;;;10407144;28;20217;-64
2021/11/20 23:21:57;;;;;;;2.90;2.60;;;17.60;64.70;;;;;;10407919;28;20668;-64
2021/11/20 23:27:21;;;;;;;2.60;2.37;;;17.60;64.70;;;;;;10407920;28;20249;-64
2021/11/20 23:32:43;;;;;;;2.33;2.13;;;17.60;64.70;;;;;;10415208;28;20567;-64
2021/11/20 23:38:06;;;;;;;2.20;2.00;;;17.60;64.60;;;;;;10417161;28;20691;-64
2021/11/20 23:43:30;;;;;;;2.10;1.90;;;17.60;64.50;;;;;;10417434;28;20190;-64
2021/11/20 23:48:53;;;;;;;2.10;1.80;;;17.60;64.60;;;;;;10417096;28;20225;-64
2021/11/20 23:54:15;;;;;;;1.83;1.73;;;17.60;64.70;;;;;;10416675;28;20224;-64
2021/11/20 23:59:38;;;;;;;2.67;2.23;;;17.60;64.60;;;;;;10416144;28;20198;-64
